Time;durP1;ratioP1;P1;durP2;ratioP2;P2;SDS_P1;SDS_P2;PMS_P1;PMS_P2;Temp;Humidity;BMP_temperature;BMP_pressure;BME280_temperature;BME280_humidity;BME280_pressure;Samples;Min_cycle;Max_cycle;Signal;HPM_P1;HPM_P2
2022/07/04 00:05:33;;;;;;;4.65;1.80;;;12.80;99.90;;;;;;4954152;28;20040;-80
2022/07/04 00:07:58;;;;;;;3.20;1.52;;;12.80;99.90;;;;;;4954740;28;20034;-80
2022/07/04 00:10:24;;;;;;;1.83;1.13;;;12.70;99.90;;;;;;4954251;28;20026;-80
2022/07/04 00:12:50;;;;;;;1.20;1.10;;;12.70;99.90;;;;;;4955411;28;20055;-81
2022/07/04 00:15:16;;;;;;;2.42;1.50;;;12.70;99.90;;;;;;4955504;28;20038;-80
2022/07/04 00:17:42;;;;;;;2.58;1.60;;;12.70;99.90;;;;;;4955425;28;20015;-80
2022/07/04 00:20:09;;;;;;;1.80;1.48;;;12.70;99.90;;;;;;4955176;28;20023;-81
2022/07/04 00:22:35;;;;;;;4.53;1.70;;;12.70;99.90;;;;;;4955384;28;20086;-80
2022/07/04 00:25:01;;;;;;;6.03;1.85;;;12.60;99.90;;;;;;4951079;28;20414;-81
2022/07/04 00:27:27;;;;;;;2.33;1.25;;;12.60;99.90;;;;;;4953872;28;20522;-81
2022/07/04 00:29:53;;;;;;;2.53;1.40;;;12.60;99.90;;;;;;4954758;28;20023;-80
2022/07/04 00:32:19;;;;;;;2.33;1.50;;;12.60;99.90;;;;;;4954915;28;20046;-80
2022/07/04 00:34:45;;;;;;;1.48;1.38;;;12.60;99.90;;;;;;4954116;28;20027;-80
2022/07/04 00:37:11;;;;;;;2.03;1.25;;;12.60;99.90;;;;;;4954982;28;20042;-80
2022/07/04 00:39:37;;;;;;;3.38;1.20;;;12.60;99.90;;;;;;4955030;28;20020;-80
2022/07/04 00:42:04;;;;;;;1.48;1.08;;;12.50;99.90;;;;;;4954960;28;20428;-80
2022/07/04 00:44:31;;;;;;;5.25;1.40;;;12.50;99.90;;;;;;4954867;28;20058;-80
2022/07/04 00:46:57;;;;;;;3.22;1.67;;;12.50;99.90;;;;;;4954825;28;20026;-80
2022/07/04 00:49:23;;;;;;;2.50;1.27;;;12.50;99.90;;;;;;4954367;28;20023;-80
2022/07/04 00:51:50;;;;;;;1.60;1.02;;;12.50;99.90;;;;;;4954337;28;20015;-80
2022/07/04 00:54:21;;;;;;;4.53;1.23;;;12.60;99.90;;;;;;4954165;28;20507;-80
2022/07/04 00:56:47;;;;;;;1.33;0.93;;;12.70;99.90;;;;;;4954048;28;20038;-80
2022/07/04 00:59:13;;;;;;;2.58;1.10;;;12.70;99.90;;;;;;4953432;28;20468;-80
2022/07/04 01:01:39;;;;;;;3.63;1.25;;;12.70;99.90;;;;;;4954434;28;20118;-80
2022/07/04 02:03:38;;;;;;;2.33;1.13;;;12.10;99.90;;;;;;5879717;23;20066;-79
2022/07/04 02:06:04;;;;;;;1.05;0.95;;;12.00;99.90;;;;;;4972457;28;20395;-79
2022/07/04 02:09:14;;;;;;;0.93;0.93;;;12.00;99.90;;;;;;4971768;28;20113;-80
2022/07/04 02:11:16;;;;;;;1.98;1.10;;;12.10;99.90;;;;;;4972780;28;20034;-80
2022/07/04 02:13:41;;;;;;;1.48;1.00;;;12.10;99.90;;;;;;4972114;28;20510;-79
2022/07/04 02:16:07;;;;;;;0.80;0.80;;;12.10;99.90;;;;;;4971522;28;20077;-79
2022/07/04 02:18:33;;;;;;;2.10;1.10;;;12.10;99.90;;;;;;4971254;28;20029;-79
2022/07/04 02:20:59;;;;;;;1.80;0.68;;;12.10;99.90;;;;;;4970109;28;20038;-79
2022/07/04 02:23:25;;;;;;;1.85;1.08;;;11.90;99.90;;;;;;4970220;28;20031;-78
2022/07/04 02:25:50;;;;;;;1.17;1.10;;;11.80;99.90;;;;;;4971888;28;20033;-78
2022/07/04 02:28:18;;;;;;;4.80;1.25;;;11.80;99.90;;;;;;4971439;28;20050;-79
2022/07/04 02:30:44;;;;;;;2.15;1.15;;;11.70;99.90;;;;;;4971448;28;20031;-79
2022/07/04 02:33:09;;;;;;;2.38;1.38;;;11.60;99.90;;;;;;4971640;28;20088;-79
2022/07/04 02:35:35;;;;;;;1.42;1.00;;;11.50;99.90;;;;;;4957990;28;20126;-80
2022/07/04 02:38:01;;;;;;;2.85;1.10;;;11.40;99.90;;;;;;4971233;28;20353;-79
2022/07/04 02:40:27;;;;;;;1.00;1.00;;;11.30;99.90;;;;;;4971582;28;20058;-79
2022/07/04 02:42:52;;;;;;;1.33;1.17;;;11.20;99.90;;;;;;4970862;28;20025;-79
2022/07/04 02:45:18;;;;;;;2.05;0.90;;;11.10;99.90;;;;;;4970745;28;20030;-79
2022/07/04 02:47:44;;;;;;;1.30;1.20;;;11.10;99.90;;;;;;4971066;28;20480;-79
2022/07/04 02:50:09;;;;;;;3.33;1.10;;;11.00;99.90;;;;;;4970355;28;20049;-79
2022/07/04 02:52:35;;;;;;;2.72;1.30;;;10.80;99.90;;;;;;4970956;28;20704;-79
2022/07/04 02:55:01;;;;;;;1.27;1.10;;;10.70;99.90;;;;;;4971123;28;20132;-79
2022/07/04 02:57:27;;;;;;;0.95;0.80;;;10.60;99.90;;;;;;4971268;28;20022;-79
2022/07/04 02:59:53;;;;;;;1.73;0.95;;;10.50;99.90;;;;;;4971396;28;20042;-79
2022/07/04 03:02:19;;;;;;;2.00;1.33;;;10.50;99.90;;;;;;4971508;28;20542;-78
2022/07/04 04:07:02;;;;;;;1.30;0.95;;;9.40;99.90;;;;;;5010259;28;20024;-80
2022/07/04 04:09:28;;;;;;;1.25;1.10;;;9.40;99.90;;;;;;5013077;28;20037;-79
2022/07/04 04:11:54;;;;;;;3.17;1.10;;;9.40;99.90;;;;;;5013963;28;20017;-80
2022/07/04 04:14:20;;;;;;;2.63;1.48;;;9.40;99.90;;;;;;5003825;28;20043;-79
2022/07/04 04:16:46;;;;;;;1.52;1.42;;;9.40;99.90;;;;;;4994359;28;20034;-80
2022/07/04 04:19:13;;;;;;;1.25;1.00;;;9.40;99.90;;;;;;5000880;28;20023;-79
2022/07/04 04:21:38;;;;;;;3.58;1.17;;;9.30;99.90;;;;;;4993932;28;20022;-80
2022/07/04 04:24:04;;;;;;;1.08;0.98;;;9.30;99.90;;;;;;4994287;28;20490;-79
2022/07/04 04:26:30;;;;;;;1.13;1.02;;;9.20;99.90;;;;;;4994285;28;20018;-79
2022/07/04 04:28:56;;;;;;;1.10;1.00;;;9.20;99.90;;;;;;4994240;28;20106;-80
2022/07/04 04:31:23;;;;;;;1.10;0.95;;;9.20;99.90;;;;;;4993157;28;20093;-80
2022/07/04 04:33:48;;;;;;;1.13;1.02;;;9.20;99.90;;;;;;5000176;28;20434;-79
2022/07/04 04:36:14;;;;;;;1.63;1.08;;;9.20;99.90;;;;;;4992962;28;20042;-80
2022/07/04 04:38:40;;;;;;;3.55;1.02;;;9.20;99.90;;;;;;4993837;28;20082;-79
2022/07/04 04:41:05;;;;;;;2.72;1.08;;;9.20;99.90;;;;;;4986595;28;20387;-79
2022/07/04 04:43:31;;;;;;;1.67;1.20;;;9.20;99.90;;;;;;4993706;28;20478;-79
2022/07/04 04:45:57;;;;;;;1.35;1.00;;;9.30;99.90;;;;;;4993627;28;20025;-79
2022/07/04 04:48:23;;;;;;;0.90;0.85;;;9.30;99.90;;;;;;4993859;28;20677;-79
2022/07/04 04:50:48;;;;;;;1.73;1.40;;;9.40;99.90;;;;;;4993316;28;21522;-79
2022/07/04 04:53:14;;;;;;;3.03;1.00;;;9.40;99.90;;;;;;4993723;28;20598;-80
2022/07/04 04:55:40;;;;;;;1.50;1.40;;;9.50;99.90;;;;;;4993247;28;20046;-79
2022/07/04 04:58:06;;;;;;;1.17;1.08;;;9.60;99.90;;;;;;4993448;28;20033;-79
2022/07/04 05:00:32;;;;;;;1.60;1.20;;;9.60;99.90;;;;;;4993179;28;20061;-80
2022/07/04 05:02:58;;;;;;;1.52;1.10;;;9.70;99.90;;;;;;4993566;28;20388;-80
2022/07/04 06:04:57;;;;;;;0.68;0.68;;;12.60;99.90;;;;;;5359140;23;20055;-78
2022/07/04 06:07:23;;;;;;;1.40;0.90;;;12.80;99.90;;;;;;4952557;28;20027;-78
2022/07/04 06:09:49;;;;;;;0.65;0.60;;;12.90;99.90;;;;;;4953869;28;20106;-78
2022/07/04 06:12:14;;;;;;;0.70;0.70;;;13.00;99.90;;;;;;4953326;28;20365;-78
2022/07/04 06:14:41;;;;;;;1.75;0.70;;;13.30;99.90;;;;;;4953608;28;20031;-78
2022/07/04 06:17:06;;;;;;;0.77;0.73;;;13.60;99.90;;;;;;4953532;28;20039;-79
2022/07/04 06:19:32;;;;;;;1.85;0.65;;;13.80;99.90;;;;;;4952043;28;20126;-79
2022/07/04 06:21:58;;;;;;;1.20;0.52;;;13.90;99.90;;;;;;4946938;28;20361;-78
2022/07/04 06:24:24;;;;;;;1.65;0.70;;;14.30;99.90;;;;;;4953375;28;20033;-78
2022/07/04 06:26:49;;;;;;;1.13;0.98;;;14.70;99.90;;;;;;4953164;28;20134;-78
2022/07/04 06:29:15;;;;;;;1.05;0.57;;;14.80;99.90;;;;;;4953512;28;20584;-78
2022/07/04 06:31:41;;;;;;;0.50;0.40;;;15.20;99.90;;;;;;4953148;28;20035;-78
2022/07/04 06:36:51;;;;;;;0.30;0.28;;;16.10;99.90;;;;;;4957013;28;20055;-78
2022/07/04 06:39:17;;;;;;;1.52;0.30;;;16.90;99.90;;;;;;4953243;28;20412;-78
2022/07/04 06:41:43;;;;;;;0.82;0.40;;;17.30;99.90;;;;;;4953285;28;20023;-78
2022/07/04 06:44:08;;;;;;;1.08;0.40;;;17.80;99.90;;;;;;4953325;28;20038;-78
2022/07/04 06:46:34;;;;;;;1.25;0.30;;;18.00;99.90;;;;;;4953233;28;20020;-78
2022/07/04 06:49:00;;;;;;;0.20;0.20;;;18.10;97.80;;;;;;4952876;28;20059;-78
2022/07/04 06:51:26;;;;;;;0.80;0.30;;;18.10;93.10;;;;;;4952618;28;20034;-78
2022/07/04 06:53:51;;;;;;;0.08;0.08;;;18.10;93.70;;;;;;4952726;28;20027;-78
2022/07/04 06:56:18;;;;;;;0.68;0.30;;;18.10;96.20;;;;;;4956674;28;20028;-78
2022/07/04 06:58:44;;;;;;;0.20;0.20;;;18.00;95.30;;;;;;4956607;28;20019;-78
2022/07/04 07:01:10;;;;;;;0.80;0.35;;;17.70;92.10;;;;;;4956799;28;20031;-78
2022/07/04 08:05:42;;;;;;;0.57;0.40;;;17.10;87.20;;;;;;5072515;23;20158;-78
2022/07/04 08:08:09;;;;;;;0.32;0.20;;;17.30;90.30;;;;;;4955529;28;20495;-77
2022/07/04 08:10:37;;;;;;;0.10;0.10;;;17.50;86.70;;;;;;4955740;28;20431;-77
2022/07/04 08:13:03;;;;;;;0.30;0.22;;;17.60;80.00;;;;;;4955235;28;20019;-78
2022/07/04 08:15:29;;;;;;;1.27;0.20;;;17.90;79.80;;;;;;4962258;28;20476;-77
2022/07/04 08:17:55;;;;;;;0.15;0.15;;;18.20;74.20;;;;;;4955905;28;20034;-77
2022/07/04 08:20:21;;;;;;;1.80;0.20;;;18.50;80.30;;;;;;4955103;28;20020;-76
2022/07/04 08:22:46;;;;;;;1.20;0.35;;;18.60;72.80;;;;;;4955819;28;20031;-77
2022/07/04 08:25:14;;;;;;;0.70;0.22;;;18.80;71.90;;;;;;4955441;28;20039;-78
2022/07/04 08:27:41;;;;;;;0.10;0.10;;;19.00;68.40;;;;;;4955498;28;20419;-77
2022/07/04 08:30:08;;;;;;;1.10;0.20;;;19.20;69.00;;;;;;4955419;28;20037;-77
2022/07/04 08:32:34;;;;;;;3.00;0.38;;;19.50;70.10;;;;;;4954995;28;20031;-77
2022/07/04 08:35:00;;;;;;;0.25;0.10;;;19.60;68.20;;;;;;4953142;28;20046;-78
2022/07/04 08:37:26;;;;;;;0.93;0.20;;;19.70;65.80;;;;;;4955205;28;20029;-77
2022/07/04 08:39:51;;;;;;;0.45;0.20;;;20.00;67.20;;;;;;4955079;28;20019;-79
2022/07/04 08:42:19;;;;;;;0.10;0.10;;;20.10;64.30;;;;;;4950369;28;20115;-77
2022/07/04 08:44:54;;;;;;;0.10;0.10;;;20.50;62.10;;;;;;4950020;28;20027;-77
2022/07/04 08:47:22;;;;;;;0.65;0.17;;;20.80;61.10;;;;;;4946226;28;20114;-76
2022/07/04 08:49:59;;;;;;;0.10;0.10;;;21.30;61.80;;;;;;4948122;28;20023;-78
2022/07/04 08:52:53;;;;;;;0.52;0.17;;;21.60;60.40;;;;;;4948320;28;20030;-77
2022/07/04 09:00:50;;;;;;;0.45;0.20;;;23.20;53.40;;;;;;4946274;28;20034;-77
2022/07/04 09:03:19;;;;;;;0.35;0.10;;;23.80;50.40;;;;;;4950387;28;20023;-77
2022/07/04 11:05:11;;;;;;;0.28;0.25;;;29.90;40.90;;;;;;5532146;23;20050;-77
2022/07/04 11:07:37;;;;;;;0.80;0.22;;;28.80;41.20;;;;;;5005418;28;20490;-76
2022/07/04 11:10:16;;;;;;;0.93;0.30;;;28.70;42.00;;;;;;5011235;28;20029;-76
2022/07/04 11:12:56;;;;;;;0.95;0.35;;;28.80;42.90;;;;;;5004451;28;20494;-76
2022/07/04 11:15:27;;;;;;;1.42;0.20;;;29.20;43.20;;;;;;5004652;28;20387;-77
2022/07/04 11:17:54;;;;;;;2.97;0.30;;;30.10;42.60;;;;;;4991700;28;20084;-77
2022/07/04 11:20:21;;;;;;;0.82;0.20;;;30.60;40.10;;;;;;4992164;28;20030;-76
2022/07/04 11:22:47;;;;;;;0.25;0.13;;;31.00;38.80;;;;;;4991436;28;20019;-78
2022/07/04 11:25:13;;;;;;;1.75;0.20;;;31.20;41.70;;;;;;4990323;28;20510;-78
2022/07/04 11:27:40;;;;;;;1.52;0.30;;;32.50;38.20;;;;;;4991517;28;20019;-77
2022/07/04 11:30:06;;;;;;;1.38;0.20;;;31.70;36.60;;;;;;4991395;28;20029;-77
2022/07/04 11:32:33;;;;;;;0.88;0.10;;;31.80;39.30;;;;;;4991517;28;20014;-77
2022/07/04 11:35:00;;;;;;;0.75;0.20;;;31.50;37.90;;;;;;4990761;28;20038;-77
2022/07/04 11:37:26;;;;;;;1.17;0.25;;;31.70;38.00;;;;;;4991133;28;20375;-77
2022/07/04 11:39:52;;;;;;;1.98;0.40;;;32.40;38.10;;;;;;4991512;28;20415;-78
2022/07/04 11:45:05;;;;;;;0.25;0.10;;;34.00;36.40;;;;;;4995141;28;20057;-78
2022/07/04 11:47:43;;;;;;;0.68;0.22;;;33.60;38.30;;;;;;4994698;28;20029;-78
2022/07/04 11:50:19;;;;;;;2.20;0.30;;;33.60;37.30;;;;;;4989625;28;20025;-78
2022/07/04 11:52:53;;;;;;;0.45;0.25;;;33.20;38.30;;;;;;4988077;28;20023;-77
2022/07/04 11:55:21;;;;;;;1.70;0.50;;;32.50;38.50;;;;;;4994370;28;20030;-77
2022/07/04 11:57:52;;;;;;;1.15;0.57;;;31.40;39.10;;;;;;4994471;28;20431;-77
2022/07/04 12:00:25;;;;;;;1.17;0.43;;;31.50;40.40;;;;;;4994796;28;20065;-75
2022/07/04 12:02:51;;;;;;;0.75;0.30;;;31.60;41.70;;;;;;4994604;28;20479;-77
2022/07/04 13:04:50;;;;;;;4.60;0.38;;;32.00;39.10;;;;;;5604531;23;20047;-77
2022/07/04 13:07:17;;;;;;;0.75;0.30;;;32.00;40.30;;;;;;4950721;28;20432;-77
2022/07/04 13:09:44;;;;;;;0.65;0.45;;;31.30;39.70;;;;;;4946412;28;20019;-77
2022/07/04 13:12:29;;;;;;;1.90;0.38;;;30.20;41.70;;;;;;4949463;28;20683;-77
2022/07/04 13:14:57;;;;;;;1.75;0.20;;;31.20;40.70;;;;;;4941983;28;20043;-77
2022/07/04 13:17:23;;;;;;;2.83;0.20;;;32.00;40.00;;;;;;4946324;28;20463;-77
2022/07/04 13:19:53;;;;;;;1.60;0.20;;;32.50;40.50;;;;;;4938529;29;20130;-77
2022/07/04 13:22:20;;;;;;;1.33;0.35;;;33.50;40.00;;;;;;4937818;29;20466;-77
2022/07/04 13:24:46;;;;;;;4.22;0.50;;;33.20;38.20;;;;;;4941861;29;20070;-78
2022/07/04 13:27:12;;;;;;;1.33;0.28;;;33.40;38.80;;;;;;4944426;28;20019;-78
2022/07/04 13:29:38;;;;;;;2.35;0.38;;;34.40;38.90;;;;;;4937086;28;20475;-79
2022/07/04 13:32:04;;;;;;;0.98;0.22;;;34.20;38.70;;;;;;4934908;29;20102;-77
2022/07/04 13:34:30;;;;;;;5.38;0.40;;;33.60;37.10;;;;;;4930199;29;20024;-78
2022/07/04 13:36:56;;;;;;;3.85;0.50;;;33.40;39.30;;;;;;4934480;29;20023;-77
2022/07/04 13:39:23;;;;;;;1.38;0.20;;;33.60;39.30;;;;;;4933320;29;20070;-76
2022/07/04 13:41:49;;;;;;;8.32;0.30;;;32.90;38.90;;;;;;4934025;29;20106;-77
2022/07/04 13:44:15;;;;;;;5.28;0.47;;;32.80;37.70;;;;;;4933450;29;20480;-78
2022/07/04 13:46:42;;;;;;;0.77;0.20;;;32.50;40.10;;;;;;4933579;29;20075;-77
2022/07/04 13:49:08;;;;;;;1.73;0.20;;;32.40;38.50;;;;;;4934975;28;20027;-77
2022/07/04 13:51:36;;;;;;;0.85;0.35;;;32.50;38.30;;;;;;4928895;29;20488;-77
2022/07/04 13:54:02;;;;;;;1.08;0.20;;;32.10;38.60;;;;;;4930127;29;20024;-77
2022/07/04 13:56:28;;;;;;;1.02;0.20;;;32.20;39.30;;;;;;4933475;29;20031;-77
2022/07/04 13:58:54;;;;;;;1.48;0.25;;;32.30;41.00;;;;;;4933414;29;20022;-78
2022/07/04 14:01:21;;;;;;;2.33;0.30;;;33.00;38.70;;;;;;4933158;29;20424;-79
2022/07/04 14:03:48;;;;;;;1.95;0.32;;;32.70;38.00;;;;;;4937781;28;20130;-78
2022/07/04 15:35:08;;;;;;;1.80;0.40;;;28.20;46.40;;;;;;5562704;23;20482;-79
2022/07/04 15:37:33;;;;;;;1.55;0.25;;;28.30;48.30;;;;;;4964015;28;20031;-76
2022/07/04 15:39:59;;;;;;;2.20;0.17;;;28.50;46.80;;;;;;4962898;28;20476;-78
2022/07/04 15:42:25;;;;;;;2.53;0.32;;;28.70;48.60;;;;;;4964710;28;20023;-78
2022/07/04 15:44:51;;;;;;;2.80;0.40;;;29.00;47.80;;;;;;4965971;28;20030;-78
2022/07/04 15:47:17;;;;;;;1.20;0.17;;;29.20;47.30;;;;;;4953331;28;20027;-77
2022/07/04 15:49:43;;;;;;;3.03;0.40;;;28.50;48.00;;;;;;4967557;28;20035;-76
2022/07/04 15:52:09;;;;;;;2.78;0.38;;;28.00;49.30;;;;;;4964704;28;20081;-77
2022/07/04 15:54:35;;;;;;;4.03;0.35;;;27.40;50.50;;;;;;4967510;28;20418;-76
2022/07/04 15:57:01;;;;;;;2.40;0.40;;;27.20;52.00;;;;;;4969462;28;20379;-75
2022/07/04 15:59:27;;;;;;;5.57;0.60;;;26.70;52.50;;;;;;4969291;28;20023;-77
2022/07/04 16:01:54;;;;;;;3.28;0.43;;;25.70;53.90;;;;;;4970508;28;20027;-76
2022/07/04 16:04:20;;;;;;;1.80;0.40;;;25.30;55.30;;;;;;4967808;28;20078;-77
2022/07/04 16:06:50;;;;;;;3.15;0.45;;;24.70;57.60;;;;;;4966831;28;20016;-80
2022/07/04 16:09:19;;;;;;;3.72;0.50;;;23.90;60.70;;;;;;4945986;28;20401;-77
2022/07/04 16:11:50;;;;;;;5.50;0.50;;;23.50;65.10;;;;;;4948052;28;20102;-78
2022/07/04 16:14:20;;;;;;;4.18;1.10;;;23.10;66.40;;;;;;4953159;28;20038;-79
2022/07/04 16:16:47;;;;;;;4.28;0.52;;;22.90;70.00;;;;;;4967734;28;20080;-77
2022/07/04 16:19:13;;;;;;;3.42;0.77;;;22.80;74.00;;;;;;4967549;28;20387;-77
2022/07/04 16:21:39;;;;;;;2.45;0.52;;;23.00;77.90;;;;;;4968241;28;20030;-77
2022/07/04 16:24:06;;;;;;;4.72;0.55;;;22.60;78.70;;;;;;4968633;28;20021;-82
2022/07/04 16:26:32;;;;;;;2.38;0.38;;;22.40;80.60;;;;;;4968822;28;20058;-80
2022/07/04 16:28:59;;;;;;;1.75;0.40;;;22.60;81.30;;;;;;4958740;28;20495;-76
2022/07/04 16:31:25;;;;;;;3.70;0.50;;;22.60;80.00;;;;;;4972004;28;20106;-77
2022/07/04 16:33:51;;;;;;;4.97;0.60;;;22.30;84.60;;;;;;4953215;28;20023;-78
2022/07/04 19:34:19;;;;;;;2.75;0.93;;;18.20;99.90;;;;;;6020028;23;20025;-75
2022/07/04 19:36:45;;;;;;;1.33;0.65;;;18.10;99.90;;;;;;4996922;28;20034;-75
2022/07/04 19:39:11;;;;;;;5.00;1.00;;;18.00;99.90;;;;;;4997055;28;20026;-76
2022/07/04 19:41:37;;;;;;;3.47;1.42;;;17.80;99.90;;;;;;4996924;28;20019;-76
2022/07/04 19:44:03;;;;;;;4.55;1.45;;;17.60;99.90;;;;;;4996650;28;20018;-76
2022/07/04 19:46:28;;;;;;;2.33;0.88;;;17.50;99.90;;;;;;4995117;28;20054;-76
2022/07/04 19:48:54;;;;;;;3.67;1.08;;;17.30;99.90;;;;;;4988073;28;20379;-76
2022/07/04 19:51:20;;;;;;;1.40;0.90;;;17.20;99.90;;;;;;4994784;28;20109;-76
2022/07/04 19:53:46;;;;;;;1.65;0.95;;;17.00;99.90;;;;;;4994915;28;20014;-76
2022/07/04 19:56:11;;;;;;;2.28;1.00;;;16.90;99.90;;;;;;4994709;28;20046;-75
2022/07/04 19:58:37;;;;;;;2.65;1.38;;;16.80;99.90;;;;;;4994140;28;20105;-76
2022/07/04 20:01:03;;;;;;;3.25;1.13;;;16.70;99.90;;;;;;4994710;28;20064;-76
2022/07/04 20:03:29;;;;;;;6.70;1.10;;;16.60;99.90;;;;;;4994525;28;20137;-76
2022/07/04 20:05:55;;;;;;;1.35;1.00;;;16.40;99.90;;;;;;4994089;28;20022;-76
2022/07/04 20:08:21;;;;;;;3.40;1.58;;;16.40;99.90;;;;;;4994368;28;20042;-76
2022/07/04 20:10:46;;;;;;;1.58;1.30;;;16.30;99.90;;;;;;4993556;28;20030;-76
2022/07/04 20:13:12;;;;;;;2.30;1.08;;;16.20;99.90;;;;;;4994143;28;20022;-76
2022/07/04 20:15:39;;;;;;;5.53;1.42;;;16.10;99.90;;;;;;4994319;28;20039;-76
2022/07/04 20:18:05;;;;;;;3.90;1.13;;;16.10;99.90;;;;;;4993987;28;20046;-75
2022/07/04 20:20:31;;;;;;;2.95;1.20;;;15.90;99.90;;;;;;4993568;28;20042;-75
2022/07/04 20:22:59;;;;;;;2.80;1.33;;;15.90;99.90;;;;;;4993979;28;20537;-75
2022/07/04 20:25:29;;;;;;;2.30;1.13;;;15.90;99.90;;;;;;4994068;28;20061;-76
2022/07/04 20:27:55;;;;;;;1.85;1.20;;;15.90;99.90;;;;;;4993696;28;20015;-77
2022/07/04 20:30:21;;;;;;;1.70;0.90;;;15.90;99.90;;;;;;4993906;28;20026;-77
2022/07/04 20:32:47;;;;;;;1.10;0.95;;;15.90;99.90;;;;;;4993812;28;20018;-76
2022/07/04 20:35:15;;;;;;;1.20;1.10;;;15.90;99.90;;;;;;5009169;23;20070;-80
2022/07/04 20:37:42;;;;;;;1.27;1.20;;;15.90;99.90;;;;;;4973697;28;20039;-79
2022/07/04 20:40:10;;;;;;;2.22;1.17;;;15.80;99.90;;;;;;4988532;28;20038;-79
2022/07/04 20:42:37;;;;;;;1.38;1.23;;;15.80;99.90;;;;;;4974534;28;20080;-79
2022/07/04 20:45:07;;;;;;;1.70;1.15;;;15.70;99.90;;;;;;4973948;28;20580;-79
2022/07/04 20:47:34;;;;;;;1.80;1.10;;;15.70;99.90;;;;;;4973437;28;20019;-79
2022/07/04 20:50:02;;;;;;;1.30;1.20;;;15.60;99.90;;;;;;4973426;28;20074;-80
2022/07/04 20:52:28;;;;;;;1.98;1.20;;;15.50;99.90;;;;;;4972604;28;20031;-79
2022/07/04 20:54:54;;;;;;;1.50;1.40;;;15.50;99.90;;;;;;4972331;28;20027;-79
2022/07/04 20:57:20;;;;;;;1.92;1.30;;;15.50;99.90;;;;;;4972459;28;20410;-79
2022/07/04 20:59:46;;;;;;;2.60;1.38;;;15.40;99.90;;;;;;4972152;28;20081;-79
2022/07/04 21:02:13;;;;;;;2.03;1.40;;;15.40;99.90;;;;;;4972662;28;20599;-80
2022/07/04 21:04:40;;;;;;;1.50;1.40;;;15.40;99.90;;;;;;4972357;28;20022;-79
2022/07/04 21:07:07;;;;;;;2.95;1.40;;;15.40;99.90;;;;;;4960015;28;20023;-79
2022/07/04 21:09:34;;;;;;;1.15;1.05;;;15.30;99.90;;;;;;4972457;28;20089;-79
2022/07/04 21:12:00;;;;;;;1.60;1.50;;;15.30;99.90;;;;;;4972338;28;20066;-79
2022/07/04 21:14:27;;;;;;;3.00;1.50;;;15.20;99.90;;;;;;4971834;28;20042;-79
2022/07/04 21:16:53;;;;;;;1.70;1.40;;;15.20;99.90;;;;;;4972584;28;20519;-79
2022/07/04 21:19:19;;;;;;;2.10;1.70;;;15.20;99.90;;;;;;4956036;28;20056;-79
2022/07/04 21:21:45;;;;;;;1.85;1.30;;;15.10;99.90;;;;;;4972676;28;20015;-80
2022/07/04 21:24:11;;;;;;;1.60;1.50;;;15.10;99.90;;;;;;4972312;28;20375;-79
2022/07/04 21:26:40;;;;;;;1.35;1.23;;;15.00;99.90;;;;;;4971921;28;20050;-79
2022/07/04 21:29:06;;;;;;;4.05;1.27;;;14.90;99.90;;;;;;4972698;28;20027;-79
2022/07/04 21:31:31;;;;;;;1.42;1.35;;;14.90;99.90;;;;;;4972388;28;20026;-79
2022/07/04 21:33:57;;;;;;;1.30;1.20;;;14.90;99.90;;;;;;4972187;28;20099;-78
2022/07/04 22:35:56;;;;;;;2.47;1.80;;;15.10;99.90;;;;;;5345630;23;20522;-78
2022/07/04 22:38:22;;;;;;;2.95;1.20;;;15.10;99.90;;;;;;4940875;28;20035;-78
2022/07/04 22:40:48;;;;;;;2.03;1.63;;;15.10;99.90;;;;;;4952617;28;20469;-79
2022/07/04 22:43:13;;;;;;;3.30;1.30;;;15.00;99.90;;;;;;4953117;28;20468;-78
2022/07/04 22:45:39;;;;;;;2.63;1.75;;;15.00;99.90;;;;;;4942057;28;20500;-79
2022/07/04 22:48:05;;;;;;;1.40;1.30;;;14.90;99.90;;;;;;4933862;29;20126;-79
2022/07/04 22:50:31;;;;;;;1.17;1.08;;;14.90;99.90;;;;;;4934118;29;20103;-79
2022/07/04 22:52:57;;;;;;;2.30;1.67;;;14.80;99.90;;;;;;4934096;29;20019;-79
2022/07/04 22:55:22;;;;;;;1.65;1.20;;;14.80;99.90;;;;;;4933651;29;20046;-79
2022/07/04 22:57:48;;;;;;;1.35;1.25;;;14.80;99.90;;;;;;4933740;29;20111;-79
2022/07/04 23:00:16;;;;;;;2.53;1.15;;;14.80;99.90;;;;;;4933492;29;20047;-78
2022/07/04 23:02:43;;;;;;;1.60;1.50;;;14.90;99.90;;;;;;4934021;29;20051;-78
2022/07/04 23:05:11;;;;;;;2.22;1.20;;;14.90;99.90;;;;;;4937930;29;20419;-77
2022/07/04 23:07:37;;;;;;;1.83;1.13;;;14.90;99.90;;;;;;4936221;28;20063;-78
2022/07/04 23:10:05;;;;;;;1.55;1.30;;;14.90;99.90;;;;;;4933769;29;20055;-77
2022/07/04 23:12:30;;;;;;;1.77;1.35;;;14.90;99.90;;;;;;4924222;29;20028;-79
2022/07/04 23:14:56;;;;;;;2.72;1.27;;;14.90;99.90;;;;;;4933162;29;20047;-77
2022/07/04 23:17:22;;;;;;;1.50;1.05;;;14.80;99.90;;;;;;4933803;29;20110;-79
2022/07/04 23:19:48;;;;;;;1.38;1.25;;;14.80;99.90;;;;;;4933623;29;20028;-79
2022/07/04 23:22:14;;;;;;;2.15;1.33;;;14.80;99.90;;;;;;4933967;29;20032;-77
2022/07/04 23:24:40;;;;;;;0.77;0.73;;;14.80;99.90;;;;;;4933989;29;20520;-77
2022/07/04 23:27:06;;;;;;;1.20;1.10;;;14.90;99.90;;;;;;4933854;29;20053;-78
2022/07/04 23:29:32;;;;;;;1.20;1.10;;;14.90;99.90;;;;;;4933684;29;20445;-78
2022/07/04 23:31:58;;;;;;;1.15;1.02;;;14.90;99.90;;;;;;4933576;29;20024;-79
